sensor_id;sensor_type;location;lat;lon;timestamp;P1;durP1;ratioP1;P2;durP2;ratioP2
18677;SDS011;9469;51.114;13.914;2022-10-03T00:02:38;16.00;;;2.80;;
18677;SDS011;9469;51.114;13.914;2022-10-03T00:08:06;10.37;;;2.33;;
18677;SDS011;9469;51.114;13.914;2022-10-03T00:13:19;7.03;;;2.70;;
18677;SDS011;9469;51.114;13.914;2022-10-03T00:18:32;9.23;;;2.70;;
18677;SDS011;9469;51.114;13.914;2022-10-03T00:23:48;7.87;;;2.70;;
18677;SDS011;9469;51.114;13.914;2022-10-03T00:29:15;11.70;;;2.57;;
18677;SDS011;9469;51.114;13.914;2022-10-03T00:34:33;10.97;;;2.97;;
18677;SDS011;9469;51.114;13.914;2022-10-03T00:40:05;15.00;;;3.93;;
18677;SDS011;9469;51.114;13.914;2022-10-03T00:45:49;11.53;;;3.60;;
18677;SDS011;9469;51.114;13.914;2022-10-03T00:51:18;14.33;;;3.07;;
18677;SDS011;9469;51.114;13.914;2022-10-03T00:56:41;11.53;;;2.40;;
18677;SDS011;9469;51.114;13.914;2022-10-03T01:01:58;13.77;;;2.93;;
18677;SDS011;9469;51.114;13.914;2022-10-03T01:07:30;19.37;;;3.63;;
18677;SDS011;9469;51.114;13.914;2022-10-03T01:18:25;16.50;;;3.27;;
18677;SDS011;9469;51.114;13.914;2022-10-03T01:23:53;11.43;;;3.60;;
18677;SDS011;9469;51.114;13.914;2022-10-03T01:29:23;15.43;;;3.10;;
18677;SDS011;9469;51.114;13.914;2022-10-03T01:34:47;13.37;;;3.10;;
18677;SDS011;9469;51.114;13.914;2022-10-03T01:40:04;11.37;;;2.73;;
18677;SDS011;9469;51.114;13.914;2022-10-03T01:45:24;14.97;;;3.00;;
18677;SDS011;9469;51.114;13.914;2022-10-03T01:50:35;17.27;;;2.77;;
18677;SDS011;9469;51.114;13.914;2022-10-03T01:55:53;18.63;;;2.87;;
18677;SDS011;9469;51.114;13.914;2022-10-03T02:01:08;20.10;;;3.40;;
18677;SDS011;9469;51.114;13.914;2022-10-03T02:06:20;11.27;;;2.70;;
18677;SDS011;9469;51.114;13.914;2022-10-03T02:11:34;11.93;;;2.90;;
18677;SDS011;9469;51.114;13.914;2022-10-03T02:16:50;16.13;;;2.80;;
18677;SDS011;9469;51.114;13.914;2022-10-03T02:22:01;10.27;;;2.70;;
18677;SDS011;9469;51.114;13.914;2022-10-03T02:38:29;12.60;;;2.80;;
18677;SDS011;9469;51.114;13.914;2022-10-03T02:49:36;15.00;;;2.93;;
18677;SDS011;9469;51.114;13.914;2022-10-03T02:55:01;17.67;;;3.97;;
18677;SDS011;9469;51.114;13.914;2022-10-03T03:00:30;9.87;;;3.33;;
18677;SDS011;9469;51.114;13.914;2022-10-03T03:17:22;14.33;;;5.43;;
18677;SDS011;9469;51.114;13.914;2022-10-03T03:22:38;19.37;;;4.93;;
18677;SDS011;9469;51.114;13.914;2022-10-03T03:27:56;13.57;;;4.60;;
18677;SDS011;9469;51.114;13.914;2022-10-03T03:33:19;15.03;;;4.87;;
18677;SDS011;9469;51.114;13.914;2022-10-03T03:38:31;12.13;;;5.53;;
18677;SDS011;9469;51.114;13.914;2022-10-03T03:43:52;14.73;;;5.17;;
18677;SDS011;9469;51.114;13.914;2022-10-03T03:49:13;15.27;;;4.97;;
18677;SDS011;9469;51.114;13.914;2022-10-03T04:00:20;15.60;;;4.23;;
18677;SDS011;9469;51.114;13.914;2022-10-03T04:05:47;14.77;;;4.17;;
18677;SDS011;9469;51.114;13.914;2022-10-03T04:11:08;15.37;;;4.67;;
18677;SDS011;9469;51.114;13.914;2022-10-03T04:16:30;19.13;;;4.67;;
18677;SDS011;9469;51.114;13.914;2022-10-03T04:22:09;16.23;;;5.10;;
18677;SDS011;9469;51.114;13.914;2022-10-03T04:27:37;11.10;;;3.70;;
18677;SDS011;9469;51.114;13.914;2022-10-03T04:33:01;12.70;;;4.47;;
18677;SDS011;9469;51.114;13.914;2022-10-03T04:38:17;14.00;;;4.40;;
18677;SDS011;9469;51.114;13.914;2022-10-03T04:43:33;9.00;;;3.70;;
18677;SDS011;9469;51.114;13.914;2022-10-03T04:48:49;22.37;;;4.37;;
18677;SDS011;9469;51.114;13.914;2022-10-03T04:54:02;14.23;;;4.23;;
18677;SDS011;9469;51.114;13.914;2022-10-03T04:59:22;13.50;;;3.60;;
18677;SDS011;9469;51.114;13.914;2022-10-03T05:04:37;11.13;;;3.80;;
18677;SDS011;9469;51.114;13.914;2022-10-03T05:09:50;25.43;;;5.20;;
18677;SDS011;9469;51.114;13.914;2022-10-03T05:15:12;15.63;;;5.47;;
18677;SDS011;9469;51.114;13.914;2022-10-03T05:20:31;15.77;;;4.60;;
18677;SDS011;9469;51.114;13.914;2022-10-03T05:25:48;19.63;;;4.57;;
18677;SDS011;9469;51.114;13.914;2022-10-03T05:31:25;14.03;;;4.53;;
18677;SDS011;9469;51.114;13.914;2022-10-03T05:42:27;18.87;;;4.83;;
18677;SDS011;9469;51.114;13.914;2022-10-03T05:47:41;19.27;;;4.63;;
18677;SDS011;9469;51.114;13.914;2022-10-03T05:53:00;20.33;;;5.13;;
18677;SDS011;9469;51.114;13.914;2022-10-03T05:58:22;17.93;;;4.27;;
18677;SDS011;9469;51.114;13.914;2022-10-03T06:09:20;15.83;;;4.53;;
18677;SDS011;9469;51.114;13.914;2022-10-03T06:14:58;16.90;;;4.83;;
18677;SDS011;9469;51.114;13.914;2022-10-03T06:26:29;15.97;;;4.40;;
18677;SDS011;9469;51.114;13.914;2022-10-03T06:32:00;15.97;;;4.53;;
18677;SDS011;9469;51.114;13.914;2022-10-03T06:48:38;14.93;;;3.60;;
18677;SDS011;9469;51.114;13.914;2022-10-03T06:54:02;20.07;;;4.00;;
18677;SDS011;9469;51.114;13.914;2022-10-03T06:59:29;11.57;;;3.93;;
18677;SDS011;9469;51.114;13.914;2022-10-03T07:10:48;14.03;;;4.73;;
18677;SDS011;9469;51.114;13.914;2022-10-03T07:27:31;16.00;;;4.47;;
18677;SDS011;9469;51.114;13.914;2022-10-03T07:33:09;15.57;;;4.23;;
18677;SDS011;9469;51.114;13.914;2022-10-03T07:38:37;13.10;;;4.37;;
18677;SDS011;9469;51.114;13.914;2022-10-03T07:49:57;14.27;;;4.00;;
18677;SDS011;9469;51.114;13.914;2022-10-03T07:55:19;13.17;;;4.10;;
18677;SDS011;9469;51.114;13.914;2022-10-03T08:00:33;15.27;;;3.97;;
18677;SDS011;9469;51.114;13.914;2022-10-03T08:06:05;14.70;;;4.10;;
18677;SDS011;9469;51.114;13.914;2022-10-03T08:11:23;13.77;;;3.43;;
18677;SDS011;9469;51.114;13.914;2022-10-03T08:16:48;7.63;;;3.43;;
18677;SDS011;9469;51.114;13.914;2022-10-03T08:22:13;13.50;;;3.27;;
18677;SDS011;9469;51.114;13.914;2022-10-03T08:27:32;5.27;;;3.10;;
18677;SDS011;9469;51.114;13.914;2022-10-03T08:33:10;10.60;;;4.00;;
18677;SDS011;9469;51.114;13.914;2022-10-03T08:39:02;11.27;;;3.43;;
18677;SDS011;9469;51.114;13.914;2022-10-03T08:55:54;13.43;;;3.27;;
18677;SDS011;9469;51.114;13.914;2022-10-03T09:06:47;9.63;;;3.10;;
18677;SDS011;9469;51.114;13.914;2022-10-03T09:12:25;14.83;;;3.03;;
18677;SDS011;9469;51.114;13.914;2022-10-03T09:23:37;7.03;;;3.00;;
18677;SDS011;9469;51.114;13.914;2022-10-03T09:29:20;9.07;;;2.60;;
18677;SDS011;9469;51.114;13.914;2022-10-03T09:40:45;10.03;;;3.23;;
18677;SDS011;9469;51.114;13.914;2022-10-03T09:52:15;4.00;;;2.83;;
18677;SDS011;9469;51.114;13.914;2022-10-03T10:03:19;8.67;;;3.10;;
18677;SDS011;9469;51.114;13.914;2022-10-03T10:14:29;10.67;;;2.87;;
18677;SDS011;9469;51.114;13.914;2022-10-03T10:19:54;8.33;;;2.50;;
18677;SDS011;9469;51.114;13.914;2022-10-03T10:30:49;7.47;;;2.63;;
18677;SDS011;9469;51.114;13.914;2022-10-03T10:36:35;9.47;;;2.47;;
18677;SDS011;9469;51.114;13.914;2022-10-03T10:42:06;8.63;;;2.30;;
18677;SDS011;9469;51.114;13.914;2022-10-03T11:10:33;10.87;;;3.07;;
18677;SDS011;9469;51.114;13.914;2022-10-03T11:15:54;6.33;;;2.57;;
18677;SDS011;9469;51.114;13.914;2022-10-03T11:33:13;11.43;;;2.40;;
18677;SDS011;9469;51.114;13.914;2022-10-03T11:38:47;6.53;;;1.77;;
18677;SDS011;9469;51.114;13.914;2022-10-03T11:44:07;13.40;;;2.57;;
18677;SDS011;9469;51.114;13.914;2022-10-03T11:49:25;9.60;;;2.10;;
18677;SDS011;9469;51.114;13.914;2022-10-03T11:54:47;9.60;;;2.13;;
18677;SDS011;9469;51.114;13.914;2022-10-03T12:00:04;15.80;;;3.10;;
18677;SDS011;9469;51.114;13.914;2022-10-03T12:05:37;5.47;;;2.07;;
18677;SDS011;9469;51.114;13.914;2022-10-03T12:10:59;9.70;;;2.20;;
18677;SDS011;9469;51.114;13.914;2022-10-03T12:16:17;6.67;;;1.83;;
18677;SDS011;9469;51.114;13.914;2022-10-03T12:21:32;12.73;;;2.20;;
18677;SDS011;9469;51.114;13.914;2022-10-03T12:26:48;9.07;;;2.10;;
18677;SDS011;9469;51.114;13.914;2022-10-03T12:37:41;9.23;;;2.20;;
18677;SDS011;9469;51.114;13.914;2022-10-03T12:43:00;12.00;;;1.70;;
18677;SDS011;9469;51.114;13.914;2022-10-03T12:48:18;12.67;;;2.00;;
18677;SDS011;9469;51.114;13.914;2022-10-03T12:53:39;9.60;;;2.30;;
18677;SDS011;9469;51.114;13.914;2022-10-03T12:58:55;6.67;;;1.80;;
18677;SDS011;9469;51.114;13.914;2022-10-03T13:04:13;5.93;;;1.90;;
18677;SDS011;9469;51.114;13.914;2022-10-03T13:09:30;10.27;;;2.37;;
18677;SDS011;9469;51.114;13.914;2022-10-03T13:20:39;10.43;;;2.00;;
18677;SDS011;9469;51.114;13.914;2022-10-03T13:25:53;10.00;;;2.23;;
18677;SDS011;9469;51.114;13.914;2022-10-03T13:31:14;8.13;;;1.77;;
18677;SDS011;9469;51.114;13.914;2022-10-03T13:36:28;7.10;;;1.87;;
18677;SDS011;9469;51.114;13.914;2022-10-03T13:41:55;6.30;;;2.30;;
18677;SDS011;9469;51.114;13.914;2022-10-03T13:47:10;7.37;;;1.97;;
18677;SDS011;9469;51.114;13.914;2022-10-03T13:52:38;4.97;;;1.50;;
18677;SDS011;9469;51.114;13.914;2022-10-03T13:57:55;7.00;;;1.50;;
18677;SDS011;9469;51.114;13.914;2022-10-03T14:03:11;8.53;;;1.57;;
18677;SDS011;9469;51.114;13.914;2022-10-03T14:08:36;8.87;;;2.23;;
18677;SDS011;9469;51.114;13.914;2022-10-03T14:14:07;8.13;;;2.00;;
18677;SDS011;9469;51.114;13.914;2022-10-03T14:19:31;6.10;;;1.77;;
18677;SDS011;9469;51.114;13.914;2022-10-03T14:24:54;6.77;;;2.13;;
18677;SDS011;9469;51.114;13.914;2022-10-03T14:30:19;9.90;;;1.97;;
18677;SDS011;9469;51.114;13.914;2022-10-03T14:35:38;7.87;;;1.93;;
18677;SDS011;9469;51.114;13.914;2022-10-03T14:40:55;5.87;;;1.93;;
18677;SDS011;9469;51.114;13.914;2022-10-03T14:46:07;9.73;;;2.30;;
18677;SDS011;9469;51.114;13.914;2022-10-03T14:51:15;7.83;;;2.40;;
18677;SDS011;9469;51.114;13.914;2022-10-03T14:56:30;11.03;;;2.30;;
18677;SDS011;9469;51.114;13.914;2022-10-03T15:01:45;6.63;;;2.43;;
18677;SDS011;9469;51.114;13.914;2022-10-03T15:06:55;11.60;;;2.43;;
18677;SDS011;9469;51.114;13.914;2022-10-03T15:12:07;8.27;;;1.83;;
18677;SDS011;9469;51.114;13.914;2022-10-03T15:17:17;10.53;;;2.30;;
18677;SDS011;9469;51.114;13.914;2022-10-03T15:22:28;7.53;;;2.27;;
18677;SDS011;9469;51.114;13.914;2022-10-03T15:27:39;5.87;;;1.90;;
18677;SDS011;9469;51.114;13.914;2022-10-03T15:32:48;6.40;;;1.77;;
18677;SDS011;9469;51.114;13.914;2022-10-03T15:37:57;8.57;;;2.10;;
18677;SDS011;9469;51.114;13.914;2022-10-03T15:43:21;7.20;;;2.07;;
18677;SDS011;9469;51.114;13.914;2022-10-03T15:48:35;7.27;;;1.77;;
18677;SDS011;9469;51.114;13.914;2022-10-03T15:53:45;9.60;;;2.20;;
18677;SDS011;9469;51.114;13.914;2022-10-03T15:58:57;7.13;;;1.80;;
18677;SDS011;9469;51.114;13.914;2022-10-03T16:04:07;6.17;;;2.07;;
18677;SDS011;9469;51.114;13.914;2022-10-03T16:09:22;8.53;;;2.50;;
18677;SDS011;9469;51.114;13.914;2022-10-03T16:14:37;4.90;;;1.20;;
18677;SDS011;9469;51.114;13.914;2022-10-03T16:19:47;5.70;;;1.77;;
18677;SDS011;9469;51.114;13.914;2022-10-03T16:24:57;10.10;;;2.60;;
18677;SDS011;9469;51.114;13.914;2022-10-03T16:30:19;7.10;;;1.90;;
18677;SDS011;9469;51.114;13.914;2022-10-03T16:35:33;5.43;;;1.50;;
18677;SDS011;9469;51.114;13.914;2022-10-03T16:40:40;7.63;;;1.50;;
18677;SDS011;9469;51.114;13.914;2022-10-03T16:45:47;8.43;;;2.07;;
18677;SDS011;9469;51.114;13.914;2022-10-03T16:50:53;8.60;;;1.70;;
18677;SDS011;9469;51.114;13.914;2022-10-03T16:56:01;5.03;;;1.70;;
18677;SDS011;9469;51.114;13.914;2022-10-03T17:01:14;9.83;;;2.00;;
18677;SDS011;9469;51.114;13.914;2022-10-03T17:06:30;7.20;;;1.80;;
18677;SDS011;9469;51.114;13.914;2022-10-03T17:11:39;7.60;;;1.70;;
18677;SDS011;9469;51.114;13.914;2022-10-03T17:16:49;8.63;;;1.87;;
18677;SDS011;9469;51.114;13.914;2022-10-03T17:22:05;6.97;;;1.80;;
18677;SDS011;9469;51.114;13.914;2022-10-03T17:27:19;6.60;;;2.23;;
18677;SDS011;9469;51.114;13.914;2022-10-03T17:32:35;3.97;;;2.00;;
18677;SDS011;9469;51.114;13.914;2022-10-03T17:43:47;6.53;;;2.07;;
18677;SDS011;9469;51.114;13.914;2022-10-03T17:49:06;4.90;;;2.03;;
18677;SDS011;9469;51.114;13.914;2022-10-03T17:54:25;12.67;;;2.67;;
18677;SDS011;9469;51.114;13.914;2022-10-03T17:59:35;7.97;;;2.33;;
18677;SDS011;9469;51.114;13.914;2022-10-03T18:04:56;9.77;;;2.30;;
18677;SDS011;9469;51.114;13.914;2022-10-03T18:10:06;7.30;;;1.93;;
18677;SDS011;9469;51.114;13.914;2022-10-03T18:21:15;5.80;;;1.60;;
18677;SDS011;9469;51.114;13.914;2022-10-03T18:26:28;4.30;;;1.50;;
18677;SDS011;9469;51.114;13.914;2022-10-03T18:31:39;7.40;;;2.60;;
18677;SDS011;9469;51.114;13.914;2022-10-03T18:36:50;6.93;;;1.93;;
18677;SDS011;9469;51.114;13.914;2022-10-03T18:41:59;5.53;;;1.87;;
18677;SDS011;9469;51.114;13.914;2022-10-03T18:47:06;3.43;;;1.77;;
18677;SDS011;9469;51.114;13.914;2022-10-03T18:52:28;8.93;;;2.10;;
18677;SDS011;9469;51.114;13.914;2022-10-03T18:57:42;5.67;;;1.60;;
18677;SDS011;9469;51.114;13.914;2022-10-03T19:02:54;5.60;;;1.73;;
18677;SDS011;9469;51.114;13.914;2022-10-03T19:08:06;5.93;;;1.70;;
18677;SDS011;9469;51.114;13.914;2022-10-03T19:13:21;8.40;;;1.73;;
18677;SDS011;9469;51.114;13.914;2022-10-03T19:18:35;5.97;;;1.83;;
18677;SDS011;9469;51.114;13.914;2022-10-03T19:23:50;4.07;;;1.60;;
18677;SDS011;9469;51.114;13.914;2022-10-03T19:29:03;5.17;;;1.70;;
18677;SDS011;9469;51.114;13.914;2022-10-03T19:34:13;6.87;;;2.20;;
18677;SDS011;9469;51.114;13.914;2022-10-03T19:39:25;6.80;;;1.80;;
18677;SDS011;9469;51.114;13.914;2022-10-03T19:44:36;4.13;;;1.50;;
18677;SDS011;9469;51.114;13.914;2022-10-03T19:49:44;2.80;;;1.30;;
18677;SDS011;9469;51.114;13.914;2022-10-03T19:55:02;6.17;;;1.27;;
18677;SDS011;9469;51.114;13.914;2022-10-03T20:00:19;9.53;;;2.53;;
18677;SDS011;9469;51.114;13.914;2022-10-03T20:05:40;6.73;;;2.00;;
18677;SDS011;9469;51.114;13.914;2022-10-03T20:11:01;4.40;;;1.37;;
18677;SDS011;9469;51.114;13.914;2022-10-03T20:16:14;4.13;;;1.97;;
18677;SDS011;9469;51.114;13.914;2022-10-03T20:21:23;6.50;;;1.47;;
18677;SDS011;9469;51.114;13.914;2022-10-03T20:26:37;4.43;;;1.60;;
18677;SDS011;9469;51.114;13.914;2022-10-03T20:31:49;6.87;;;1.73;;
18677;SDS011;9469;51.114;13.914;2022-10-03T20:36:56;3.40;;;1.43;;
18677;SDS011;9469;51.114;13.914;2022-10-03T20:42:14;3.17;;;1.30;;
18677;SDS011;9469;51.114;13.914;2022-10-03T20:53:00;4.93;;;1.93;;
18677;SDS011;9469;51.114;13.914;2022-10-03T20:58:15;5.23;;;1.57;;
18677;SDS011;9469;51.114;13.914;2022-10-03T21:03:26;5.40;;;2.20;;
18677;SDS011;9469;51.114;13.914;2022-10-03T21:08:35;6.43;;;1.90;;
18677;SDS011;9469;51.114;13.914;2022-10-03T21:13:47;7.33;;;1.57;;
18677;SDS011;9469;51.114;13.914;2022-10-03T21:18:58;4.73;;;1.73;;
18677;SDS011;9469;51.114;13.914;2022-10-03T21:24:09;3.93;;;1.40;;
18677;SDS011;9469;51.114;13.914;2022-10-03T21:29:24;5.37;;;2.07;;
18677;SDS011;9469;51.114;13.914;2022-10-03T21:34:32;5.87;;;2.03;;
18677;SDS011;9469;51.114;13.914;2022-10-03T21:39:50;6.87;;;2.07;;
18677;SDS011;9469;51.114;13.914;2022-10-03T21:45:10;8.73;;;1.97;;
18677;SDS011;9469;51.114;13.914;2022-10-03T21:50:24;7.20;;;1.80;;
18677;SDS011;9469;51.114;13.914;2022-10-03T21:55:37;6.20;;;2.00;;
18677;SDS011;9469;51.114;13.914;2022-10-03T22:01:08;6.13;;;1.80;;
18677;SDS011;9469;51.114;13.914;2022-10-03T22:06:19;7.40;;;2.17;;
18677;SDS011;9469;51.114;13.914;2022-10-03T22:11:31;7.63;;;1.90;;
18677;SDS011;9469;51.114;13.914;2022-10-03T22:16:47;9.23;;;2.10;;
18677;SDS011;9469;51.114;13.914;2022-10-03T22:22:02;4.53;;;1.70;;
18677;SDS011;9469;51.114;13.914;2022-10-03T22:27:18;9.17;;;2.47;;
18677;SDS011;9469;51.114;13.914;2022-10-03T22:32:35;3.87;;;1.47;;
18677;SDS011;9469;51.114;13.914;2022-10-03T22:37:46;6.53;;;1.70;;
18677;SDS011;9469;51.114;13.914;2022-10-03T22:42:52;8.57;;;1.80;;
18677;SDS011;9469;51.114;13.914;2022-10-03T22:48:03;6.07;;;1.80;;
18677;SDS011;9469;51.114;13.914;2022-10-03T22:53:15;12.03;;;1.97;;
18677;SDS011;9469;51.114;13.914;2022-10-03T22:58:25;6.93;;;2.00;;
18677;SDS011;9469;51.114;13.914;2022-10-03T23:03:35;5.77;;;1.93;;
18677;SDS011;9469;51.114;13.914;2022-10-03T23:08:43;7.60;;;1.80;;
18677;SDS011;9469;51.114;13.914;2022-10-03T23:13:56;11.83;;;1.90;;
18677;SDS011;9469;51.114;13.914;2022-10-03T23:19:15;5.03;;;2.00;;
18677;SDS011;9469;51.114;13.914;2022-10-03T23:24:27;12.90;;;2.40;;
18677;SDS011;9469;51.114;13.914;2022-10-03T23:29:39;7.70;;;1.90;;
18677;SDS011;9469;51.114;13.914;2022-10-03T23:34:48;5.73;;;2.13;;
18677;SDS011;9469;51.114;13.914;2022-10-03T23:45:47;10.77;;;2.80;;
18677;SDS011;9469;51.114;13.914;2022-10-03T23:50:57;8.77;;;2.03;;
18677;SDS011;9469;51.114;13.914;2022-10-03T23:56:25;7.23;;;2.30;;
